sensor_id;sensor_type;location;lat;lon;timestamp;temperature;humidity
76838;DHT22;65797;47.352;8.164;2023-12-29T00:55:04;6.20;1.00
76838;DHT22;65797;47.352;8.164;2023-12-29T00:57:29;6.10;1.00
76838;DHT22;65797;47.352;8.164;2023-12-29T00:59:55;6.10;1.00
76838;DHT22;65797;47.352;8.164;2023-12-29T01:02:21;6.10;1.00
76838;DHT22;65797;47.352;8.164;2023-12-29T01:04:46;6.10;1.00
76838;DHT22;65797;47.352;8.164;2023-12-29T01:07:12;6.00;1.00
76838;DHT22;65797;47.352;8.164;2023-12-29T01:25:59;5.90;60.20
76838;DHT22;65797;47.352;8.164;2023-12-29T01:46:28;5.70;99.90
76838;DHT22;65797;47.352;8.164;2023-12-29T01:48:54;5.70;99.90
76838;DHT22;65797;47.352;8.164;2023-12-29T01:51:23;5.60;90.40
76838;DHT22;65797;47.352;8.164;2023-12-29T02:04:12;5.40;99.90
76838;DHT22;65797;47.352;8.164;2023-12-29T02:09:13;5.40;99.90
76838;DHT22;65797;47.352;8.164;2023-12-29T02:11:41;5.40;99.90
76838;DHT22;65797;47.352;8.164;2023-12-29T02:14:07;5.40;99.90
76838;DHT22;65797;47.352;8.164;2023-12-29T02:19:47;5.40;1.00
76838;DHT22;65797;47.352;8.164;2023-12-29T02:22:15;5.40;1.00
76838;DHT22;65797;47.352;8.164;2023-12-29T02:24:50;5.40;1.00
76838;DHT22;65797;47.352;8.164;2023-12-29T02:32:59;5.40;1.00
76838;DHT22;65797;47.352;8.164;2023-12-29T02:35:28;5.30;99.90
76838;DHT22;65797;47.352;8.164;2023-12-29T02:37:55;5.30;99.90
76838;DHT22;65797;47.352;8.164;2023-12-29T02:40:21;5.20;1.00
76838;DHT22;65797;47.352;8.164;2023-12-29T02:42:48;5.20;1.00
76838;DHT22;65797;47.352;8.164;2023-12-29T02:45:17;5.20;1.00
76838;DHT22;65797;47.352;8.164;2023-12-29T02:47:43;5.20;1.00
76838;DHT22;65797;47.352;8.164;2023-12-29T02:50:10;5.20;1.00
76838;DHT22;65797;47.352;8.164;2023-12-29T02:52:36;5.20;99.90
76838;DHT22;65797;47.352;8.164;2023-12-29T02:55:02;5.20;99.90
76838;DHT22;65797;47.352;8.164;2023-12-29T02:57:28;5.20;99.90
76838;DHT22;65797;47.352;8.164;2023-12-29T02:59:55;5.10;99.90
76838;DHT22;65797;47.352;8.164;2023-12-29T04:12:03;5.50;99.90
76838;DHT22;65797;47.352;8.164;2023-12-29T04:14:29;5.50;99.90
76838;DHT22;65797;47.352;8.164;2023-12-29T04:16:55;5.60;99.90
76838;DHT22;65797;47.352;8.164;2023-12-29T04:19:21;5.70;29.60
76838;DHT22;65797;47.352;8.164;2023-12-29T04:21:46;5.70;59.90
76838;DHT22;65797;47.352;8.164;2023-12-29T04:24:12;5.70;43.70
76838;DHT22;65797;47.352;8.164;2023-12-29T04:26:38;5.70;1.00
76838;DHT22;65797;47.352;8.164;2023-12-29T04:29:04;5.80;99.90
76838;DHT22;65797;47.352;8.164;2023-12-29T04:31:29;5.90;1.00
76838;DHT22;65797;47.352;8.164;2023-12-29T04:33:55;5.90;99.90
76838;DHT22;65797;47.352;8.164;2023-12-29T04:36:21;5.90;99.90
76838;DHT22;65797;47.352;8.164;2023-12-29T04:38:46;6.00;1.00
76838;DHT22;65797;47.352;8.164;2023-12-29T04:41:12;6.30;99.90
76838;DHT22;65797;47.352;8.164;2023-12-29T04:43:38;6.30;1.00
76838;DHT22;65797;47.352;8.164;2023-12-29T04:46:04;6.30;1.00
76838;DHT22;65797;47.352;8.164;2023-12-29T04:48:30;6.30;1.00
76838;DHT22;65797;47.352;8.164;2023-12-29T04:50:55;6.30;1.00
76838;DHT22;65797;47.352;8.164;2023-12-29T04:53:21;6.30;1.00
76838;DHT22;65797;47.352;8.164;2023-12-29T04:55:47;6.20;1.00
76838;DHT22;65797;47.352;8.164;2023-12-29T04:58:13;6.20;1.00
76838;DHT22;65797;47.352;8.164;2023-12-29T05:00:38;6.10;1.00
76838;DHT22;65797;47.352;8.164;2023-12-29T05:03:04;6.20;99.90
76838;DHT22;65797;47.352;8.164;2023-12-29T05:05:30;6.20;1.00
76838;DHT22;65797;47.352;8.164;2023-12-29T05:07:56;6.20;99.90
76838;DHT22;65797;47.352;8.164;2023-12-29T05:12:57;6.20;99.90
76838;DHT22;65797;47.352;8.164;2023-12-29T05:15:22;6.20;99.90
76838;DHT22;65797;47.352;8.164;2023-12-29T05:17:48;6.20;99.90
76838;DHT22;65797;47.352;8.164;2023-12-29T05:20:14;6.10;99.90
76838;DHT22;65797;47.352;8.164;2023-12-29T05:33:01;6.40;1.00
76838;DHT22;65797;47.352;8.164;2023-12-29T05:35:27;6.40;26.50
76838;DHT22;65797;47.352;8.164;2023-12-29T05:37:52;6.40;99.90
76838;DHT22;65797;47.352;8.164;2023-12-29T05:40:18;6.40;99.90
76838;DHT22;65797;47.352;8.164;2023-12-29T05:42:44;6.40;99.90
76838;DHT22;65797;47.352;8.164;2023-12-29T05:45:10;6.40;99.90
76838;DHT22;65797;47.352;8.164;2023-12-29T05:47:35;6.40;99.90
76838;DHT22;65797;47.352;8.164;2023-12-29T05:50:01;6.40;99.90
76838;DHT22;65797;47.352;8.164;2023-12-29T05:52:28;6.40;79.10
76838;DHT22;65797;47.352;8.164;2023-12-29T05:54:54;6.40;68.60
76838;DHT22;65797;47.352;8.164;2023-12-29T06:12:52;6.70;1.00
76838;DHT22;65797;47.352;8.164;2023-12-29T06:15:17;6.70;99.90
76838;DHT22;65797;47.352;8.164;2023-12-29T06:17:45;7.00;99.90
76838;DHT22;65797;47.352;8.164;2023-12-29T06:20:11;7.00;1.00
76838;DHT22;65797;47.352;8.164;2023-12-29T06:22:40;7.20;99.90
76838;DHT22;65797;47.352;8.164;2023-12-29T06:25:12;7.20;99.90
76838;DHT22;65797;47.352;8.164;2023-12-29T06:27:38;7.20;99.90
76838;DHT22;65797;47.352;8.164;2023-12-29T06:30:06;7.20;96.80
76838;DHT22;65797;47.352;8.164;2023-12-29T06:32:32;7.20;99.90
76838;DHT22;65797;47.352;8.164;2023-12-29T06:34:58;7.50;1.00
76838;DHT22;65797;47.352;8.164;2023-12-29T06:37:24;7.40;1.00
76838;DHT22;65797;47.352;8.164;2023-12-29T06:39:50;7.40;1.00
76838;DHT22;65797;47.352;8.164;2023-12-29T06:44:51;7.30;1.00
76838;DHT22;65797;47.352;8.164;2023-12-29T06:47:17;7.20;1.00
76838;DHT22;65797;47.352;8.164;2023-12-29T06:52:18;7.60;99.90
76838;DHT22;65797;47.352;8.164;2023-12-29T06:54:44;8.00;1.00
76838;DHT22;65797;47.352;8.164;2023-12-29T06:57:09;7.90;1.00
76838;DHT22;65797;47.352;8.164;2023-12-29T07:02:10;7.80;1.00
76838;DHT22;65797;47.352;8.164;2023-12-29T07:04:36;7.90;1.00
76838;DHT22;65797;47.352;8.164;2023-12-29T07:12:12;7.80;1.00
76838;DHT22;65797;47.352;8.164;2023-12-29T07:14:41;7.80;1.00
76838;DHT22;65797;47.352;8.164;2023-12-29T07:17:06;7.80;1.00
76838;DHT22;65797;47.352;8.164;2023-12-29T07:19:32;7.80;1.00
76838;DHT22;65797;47.352;8.164;2023-12-29T07:22:05;7.80;1.00
76838;DHT22;65797;47.352;8.164;2023-12-29T07:24:32;7.80;31.80
76838;DHT22;65797;47.352;8.164;2023-12-29T07:45:06;7.70;1.00
76838;DHT22;65797;47.352;8.164;2023-12-29T15:46:54;10.10;99.90
76838;DHT22;65797;47.352;8.164;2023-12-29T15:51:55;10.10;99.90
76838;DHT22;65797;47.352;8.164;2023-12-29T15:54:21;10.00;99.90
76838;DHT22;65797;47.352;8.164;2023-12-29T15:59:22;10.00;1.00
76838;DHT22;65797;47.352;8.164;2023-12-29T16:01:48;9.90;1.00
76838;DHT22;65797;47.352;8.164;2023-12-29T16:06:49;9.90;1.00
76838;DHT22;65797;47.352;8.164;2023-12-29T16:14:25;9.80;1.00
76838;DHT22;65797;47.352;8.164;2023-12-29T16:16:53;9.80;1.00
76838;DHT22;65797;47.352;8.164;2023-12-29T16:19:19;9.90;1.00
76838;DHT22;65797;47.352;8.164;2023-12-29T16:21:44;9.90;1.00
76838;DHT22;65797;47.352;8.164;2023-12-29T16:24:10;10.00;1.00
76838;DHT22;65797;47.352;8.164;2023-12-29T16:26:38;10.00;1.00
76838;DHT22;65797;47.352;8.164;2023-12-29T16:29:06;9.90;1.00
76838;DHT22;65797;47.352;8.164;2023-12-29T16:31:32;9.90;1.00
76838;DHT22;65797;47.352;8.164;2023-12-29T16:33:59;9.90;1.00
76838;DHT22;65797;47.352;8.164;2023-12-29T16:36:25;9.80;1.00
76838;DHT22;65797;47.352;8.164;2023-12-29T16:38:51;9.80;1.00
76838;DHT22;65797;47.352;8.164;2023-12-29T16:41:20;9.80;1.00
76838;DHT22;65797;47.352;8.164;2023-12-29T16:43:47;9.70;1.00
76838;DHT22;65797;47.352;8.164;2023-12-29T16:51:37;9.50;1.00
76838;DHT22;65797;47.352;8.164;2023-12-29T16:56:39;9.50;1.00
76838;DHT22;65797;47.352;8.164;2023-12-29T17:01:40;9.40;5.80
76838;DHT22;65797;47.352;8.164;2023-12-29T17:04:06;9.30;13.20
76838;DHT22;65797;47.352;8.164;2023-12-29T17:06:36;9.30;36.90
76838;DHT22;65797;47.352;8.164;2023-12-29T17:09:05;9.20;81.00
76838;DHT22;65797;47.352;8.164;2023-12-29T17:11:31;9.30;99.90
76838;DHT22;65797;47.352;8.164;2023-12-29T17:13:57;9.20;79.10
76838;DHT22;65797;47.352;8.164;2023-12-29T17:16:22;9.10;99.90
76838;DHT22;65797;47.352;8.164;2023-12-29T17:21:26;9.00;99.90
76838;DHT22;65797;47.352;8.164;2023-12-29T18:01:49;8.60;1.00
76838;DHT22;65797;47.352;8.164;2023-12-29T18:04:18;8.60;1.00
76838;DHT22;65797;47.352;8.164;2023-12-29T18:09:20;8.60;1.00
76838;DHT22;65797;47.352;8.164;2023-12-29T18:11:51;8.50;1.00
76838;DHT22;65797;47.352;8.164;2023-12-29T18:14:17;8.50;1.00
76838;DHT22;65797;47.352;8.164;2023-12-29T18:16:45;8.50;1.00
76838;DHT22;65797;47.352;8.164;2023-12-29T18:19:11;8.60;1.00
76838;DHT22;65797;47.352;8.164;2023-12-29T18:21:36;8.50;1.00
76838;DHT22;65797;47.352;8.164;2023-12-29T18:24:04;8.50;1.00
76838;DHT22;65797;47.352;8.164;2023-12-29T18:26:30;8.50;1.00
76838;DHT22;65797;47.352;8.164;2023-12-29T18:28:55;8.40;1.00
76838;DHT22;65797;47.352;8.164;2023-12-29T18:31:22;8.50;1.00
76838;DHT22;65797;47.352;8.164;2023-12-29T18:33:48;8.50;1.00
76838;DHT22;65797;47.352;8.164;2023-12-29T18:44:13;8.40;94.50
76838;DHT22;65797;47.352;8.164;2023-12-29T18:46:39;8.40;99.90
76838;DHT22;65797;47.352;8.164;2023-12-29T18:49:11;8.50;99.90
76838;DHT22;65797;47.352;8.164;2023-12-29T19:18:35;8.20;1.00
76838;DHT22;65797;47.352;8.164;2023-12-29T19:21:03;8.20;71.80
76838;DHT22;65797;47.352;8.164;2023-12-29T19:23:28;8.20;99.90
76838;DHT22;65797;47.352;8.164;2023-12-29T19:25:54;8.20;99.90
76838;DHT22;65797;47.352;8.164;2023-12-29T19:28:20;8.20;99.90
76838;DHT22;65797;47.352;8.164;2023-12-29T19:30:46;8.20;99.90
76838;DHT22;65797;47.352;8.164;2023-12-29T19:33:11;8.10;99.90
76838;DHT22;65797;47.352;8.164;2023-12-29T20:14:27;8.10;1.00
76838;DHT22;65797;47.352;8.164;2023-12-29T20:16:53;8.20;1.00
76838;DHT22;65797;47.352;8.164;2023-12-29T20:19:19;8.20;99.90
76838;DHT22;65797;47.352;8.164;2023-12-29T20:21:44;8.10;99.90
76838;DHT22;65797;47.352;8.164;2023-12-29T20:24:10;8.10;1.00
76838;DHT22;65797;47.352;8.164;2023-12-29T20:26:36;8.30;1.00
76838;DHT22;65797;47.352;8.164;2023-12-29T20:29:02;8.20;99.90
76838;DHT22;65797;47.352;8.164;2023-12-29T20:31:30;8.20;99.90
76838;DHT22;65797;47.352;8.164;2023-12-29T20:33:56;8.40;99.90
76838;DHT22;65797;47.352;8.164;2023-12-29T20:36:23;8.40;99.90
76838;DHT22;65797;47.352;8.164;2023-12-29T20:38:49;8.40;99.90
76838;DHT22;65797;47.352;8.164;2023-12-29T20:41:21;8.40;99.90
76838;DHT22;65797;47.352;8.164;2023-12-29T20:43:47;8.40;99.90
76838;DHT22;65797;47.352;8.164;2023-12-29T20:46:16;8.40;99.90
76838;DHT22;65797;47.352;8.164;2023-12-29T20:48:43;8.50;99.90
76838;DHT22;65797;47.352;8.164;2023-12-29T22:21:41;8.40;7.70
76838;DHT22;65797;47.352;8.164;2023-12-29T22:24:09;8.30;9.20
76838;DHT22;65797;47.352;8.164;2023-12-29T22:26:35;8.30;99.90
76838;DHT22;65797;47.352;8.164;2023-12-29T22:29:02;8.20;99.90
76838;DHT22;65797;47.352;8.164;2023-12-29T22:31:28;8.20;99.90
76838;DHT22;65797;47.352;8.164;2023-12-29T22:33:54;8.20;99.90
76838;DHT22;65797;47.352;8.164;2023-12-29T22:36:20;8.20;99.90
76838;DHT22;65797;47.352;8.164;2023-12-29T22:38:46;8.10;99.90
76838;DHT22;65797;47.352;8.164;2023-12-29T22:41:15;8.10;99.90
76838;DHT22;65797;47.352;8.164;2023-12-29T22:43:45;8.00;99.90
76838;DHT22;65797;47.352;8.164;2023-12-29T22:46:15;8.00;1.00
76838;DHT22;65797;47.352;8.164;2023-12-29T22:48:42;8.00;99.90
76838;DHT22;65797;47.352;8.164;2023-12-29T22:51:09;7.90;88.70
76838;DHT22;65797;47.352;8.164;2023-12-29T22:58:46;7.70;99.90
76838;DHT22;65797;47.352;8.164;2023-12-29T23:01:12;7.70;1.00
76838;DHT22;65797;47.352;8.164;2023-12-29T23:03:38;7.60;1.00
76838;DHT22;65797;47.352;8.164;2023-12-29T23:06:03;7.50;1.00
76838;DHT22;65797;47.352;8.164;2023-12-29T23:08:29;7.50;1.00
76838;DHT22;65797;47.352;8.164;2023-12-29T23:13:30;7.60;1.00
76838;DHT22;65797;47.352;8.164;2023-12-29T23:15:56;7.50;1.00
76838;DHT22;65797;47.352;8.164;2023-12-29T23:18:22;7.40;1.00
76838;DHT22;65797;47.352;8.164;2023-12-29T23:20:48;7.40;1.00
76838;DHT22;65797;47.352;8.164;2023-12-29T23:23:14;7.40;99.90
76838;DHT22;65797;47.352;8.164;2023-12-29T23:25:39;7.40;99.90
76838;DHT22;65797;47.352;8.164;2023-12-29T23:28:05;7.40;99.90
76838;DHT22;65797;47.352;8.164;2023-12-29T23:30:31;7.40;99.90
76838;DHT22;65797;47.352;8.164;2023-12-29T23:32:56;7.30;99.90
76838;DHT22;65797;47.352;8.164;2023-12-29T23:35:22;7.30;99.90
76838;DHT22;65797;47.352;8.164;2023-12-29T23:37:48;7.30;99.90
76838;DHT22;65797;47.352;8.164;2023-12-29T23:40:14;7.30;1.00
76838;DHT22;65797;47.352;8.164;2023-12-29T23:42:39;7.40;50.20
76838;DHT22;65797;47.352;8.164;2023-12-29T23:45:06;7.40;1.00
76838;DHT22;65797;47.352;8.164;2023-12-29T23:47:32;7.40;1.00
76838;DHT22;65797;47.352;8.164;2023-12-29T23:49:58;7.40;1.00
76838;DHT22;65797;47.352;8.164;2023-12-29T23:52:23;7.30;99.90
76838;DHT22;65797;47.352;8.164;2023-12-29T23:54:49;7.30;1.00
76838;DHT22;65797;47.352;8.164;2023-12-29T23:57:15;7.20;1.00
76838;DHT22;65797;47.352;8.164;2023-12-29T23:59:41;7.20;1.00
